sensor_id;sensor_type;location;lat;lon;timestamp;P1;durP1;ratioP1;P2;durP2;ratioP2
16878;SDS011;8556;52.218;9.884;2022-12-05T00:00:09;59.67;;;24.47;;
16878;SDS011;8556;52.218;9.884;2022-12-05T00:02:37;61.47;;;23.93;;
16878;SDS011;8556;52.218;9.884;2022-12-05T00:05:04;60.70;;;24.83;;
16878;SDS011;8556;52.218;9.884;2022-12-05T00:07:33;56.37;;;23.63;;
16878;SDS011;8556;52.218;9.884;2022-12-05T00:10:00;60.10;;;25.13;;
16878;SDS011;8556;52.218;9.884;2022-12-05T00:12:26;58.07;;;22.43;;
16878;SDS011;8556;52.218;9.884;2022-12-05T00:14:53;57.10;;;24.20;;
16878;SDS011;8556;52.218;9.884;2022-12-05T00:17:20;53.70;;;22.30;;
16878;SDS011;8556;52.218;9.884;2022-12-05T00:19:47;54.47;;;23.43;;
16878;SDS011;8556;52.218;9.884;2022-12-05T00:22:14;55.10;;;22.47;;
16878;SDS011;8556;52.218;9.884;2022-12-05T00:24:42;59.07;;;25.17;;
16878;SDS011;8556;52.218;9.884;2022-12-05T00:27:09;51.37;;;22.70;;
16878;SDS011;8556;52.218;9.884;2022-12-05T00:29:35;61.53;;;29.10;;
16878;SDS011;8556;52.218;9.884;2022-12-05T00:32:03;54.17;;;26.93;;
16878;SDS011;8556;52.218;9.884;2022-12-05T00:34:30;64.23;;;27.03;;
16878;SDS011;8556;52.218;9.884;2022-12-05T00:36:56;55.47;;;24.90;;
16878;SDS011;8556;52.218;9.884;2022-12-05T00:39:23;55.67;;;24.30;;
16878;SDS011;8556;52.218;9.884;2022-12-05T00:41:51;59.07;;;24.40;;
16878;SDS011;8556;52.218;9.884;2022-12-05T00:44:18;56.53;;;24.13;;
16878;SDS011;8556;52.218;9.884;2022-12-05T00:46:45;54.87;;;22.37;;
16878;SDS011;8556;52.218;9.884;2022-12-05T00:49:12;62.93;;;24.03;;
16878;SDS011;8556;52.218;9.884;2022-12-05T00:51:39;56.03;;;25.40;;
16878;SDS011;8556;52.218;9.884;2022-12-05T00:54:11;53.33;;;23.70;;
16878;SDS011;8556;52.218;9.884;2022-12-05T00:56:39;52.53;;;23.97;;
16878;SDS011;8556;52.218;9.884;2022-12-05T00:59:08;53.77;;;23.57;;
16878;SDS011;8556;52.218;9.884;2022-12-05T01:01:40;54.33;;;23.70;;
16878;SDS011;8556;52.218;9.884;2022-12-05T01:04:08;56.07;;;23.73;;
16878;SDS011;8556;52.218;9.884;2022-12-05T01:06:36;57.23;;;23.97;;
16878;SDS011;8556;52.218;9.884;2022-12-05T01:09:05;50.50;;;23.87;;
16878;SDS011;8556;52.218;9.884;2022-12-05T01:11:33;58.57;;;23.23;;
16878;SDS011;8556;52.218;9.884;2022-12-05T01:14:00;52.33;;;23.33;;
16878;SDS011;8556;52.218;9.884;2022-12-05T01:16:29;51.13;;;23.53;;
16878;SDS011;8556;52.218;9.884;2022-12-05T01:18:58;49.77;;;23.17;;
16878;SDS011;8556;52.218;9.884;2022-12-05T01:21:26;54.83;;;23.60;;
16878;SDS011;8556;52.218;9.884;2022-12-05T01:23:53;47.33;;;22.70;;
16878;SDS011;8556;52.218;9.884;2022-12-05T01:26:20;53.50;;;23.23;;
16878;SDS011;8556;52.218;9.884;2022-12-05T01:28:48;53.10;;;23.40;;
16878;SDS011;8556;52.218;9.884;2022-12-05T01:31:16;51.60;;;24.13;;
16878;SDS011;8556;52.218;9.884;2022-12-05T01:33:47;49.63;;;22.93;;
16878;SDS011;8556;52.218;9.884;2022-12-05T01:36:15;51.70;;;22.97;;
16878;SDS011;8556;52.218;9.884;2022-12-05T01:38:42;51.27;;;22.93;;
16878;SDS011;8556;52.218;9.884;2022-12-05T01:41:11;51.00;;;22.60;;
16878;SDS011;8556;52.218;9.884;2022-12-05T01:43:52;52.80;;;24.40;;
16878;SDS011;8556;52.218;9.884;2022-12-05T01:46:24;52.40;;;22.57;;
16878;SDS011;8556;52.218;9.884;2022-12-05T01:48:54;50.23;;;22.90;;
16878;SDS011;8556;52.218;9.884;2022-12-05T01:51:26;51.70;;;22.60;;
16878;SDS011;8556;52.218;9.884;2022-12-05T01:53:53;50.93;;;22.17;;
16878;SDS011;8556;52.218;9.884;2022-12-05T01:56:20;52.73;;;22.63;;
16878;SDS011;8556;52.218;9.884;2022-12-05T01:58:47;47.67;;;21.47;;
16878;SDS011;8556;52.218;9.884;2022-12-05T02:01:14;46.93;;;22.50;;
16878;SDS011;8556;52.218;9.884;2022-12-05T02:03:42;49.90;;;21.97;;
16878;SDS011;8556;52.218;9.884;2022-12-05T02:06:13;52.80;;;22.97;;
16878;SDS011;8556;52.218;9.884;2022-12-05T02:08:40;51.20;;;21.90;;
16878;SDS011;8556;52.218;9.884;2022-12-05T02:11:07;50.03;;;22.27;;
16878;SDS011;8556;52.218;9.884;2022-12-05T02:13:42;49.33;;;22.67;;
16878;SDS011;8556;52.218;9.884;2022-12-05T02:16:23;48.33;;;22.13;;
16878;SDS011;8556;52.218;9.884;2022-12-05T02:18:59;46.67;;;22.70;;
16878;SDS011;8556;52.218;9.884;2022-12-05T02:21:49;52.07;;;22.47;;
16878;SDS011;8556;52.218;9.884;2022-12-05T02:24:45;49.03;;;22.90;;
16878;SDS011;8556;52.218;9.884;2022-12-05T02:27:36;45.00;;;20.30;;
16878;SDS011;8556;52.218;9.884;2022-12-05T02:30:15;44.13;;;21.30;;
16878;SDS011;8556;52.218;9.884;2022-12-05T02:32:49;45.03;;;21.00;;
16878;SDS011;8556;52.218;9.884;2022-12-05T02:38:16;48.33;;;20.77;;
16878;SDS011;8556;52.218;9.884;2022-12-05T02:40:50;43.57;;;19.87;;
16878;SDS011;8556;52.218;9.884;2022-12-05T02:43:28;41.90;;;19.50;;
16878;SDS011;8556;52.218;9.884;2022-12-05T02:46:00;43.70;;;20.20;;
16878;SDS011;8556;52.218;9.884;2022-12-05T02:48:33;42.13;;;21.03;;
16878;SDS011;8556;52.218;9.884;2022-12-05T02:51:02;43.50;;;22.00;;
16878;SDS011;8556;52.218;9.884;2022-12-05T02:53:30;43.37;;;20.33;;
16878;SDS011;8556;52.218;9.884;2022-12-05T02:56:00;39.20;;;19.07;;
16878;SDS011;8556;52.218;9.884;2022-12-05T02:58:30;39.87;;;19.50;;
16878;SDS011;8556;52.218;9.884;2022-12-05T03:01:01;44.17;;;22.27;;
16878;SDS011;8556;52.218;9.884;2022-12-05T03:03:28;39.47;;;21.83;;
16878;SDS011;8556;52.218;9.884;2022-12-05T03:05:59;42.33;;;22.00;;
16878;SDS011;8556;52.218;9.884;2022-12-05T03:08:31;39.00;;;18.37;;
16878;SDS011;8556;52.218;9.884;2022-12-05T03:11:04;35.50;;;18.30;;
16878;SDS011;8556;52.218;9.884;2022-12-05T03:13:39;36.37;;;20.80;;
16878;SDS011;8556;52.218;9.884;2022-12-05T03:16:11;36.83;;;20.43;;
16878;SDS011;8556;52.218;9.884;2022-12-05T03:18:44;36.00;;;19.77;;
16878;SDS011;8556;52.218;9.884;2022-12-05T03:21:17;36.47;;;17.90;;
16878;SDS011;8556;52.218;9.884;2022-12-05T03:23:50;37.47;;;18.27;;
16878;SDS011;8556;52.218;9.884;2022-12-05T03:26:25;34.40;;;18.33;;
16878;SDS011;8556;52.218;9.884;2022-12-05T03:29:04;34.53;;;17.47;;
16878;SDS011;8556;52.218;9.884;2022-12-05T03:31:44;34.90;;;17.73;;
16878;SDS011;8556;52.218;9.884;2022-12-05T03:34:18;33.33;;;17.07;;
16878;SDS011;8556;52.218;9.884;2022-12-05T03:36:50;35.93;;;17.63;;
16878;SDS011;8556;52.218;9.884;2022-12-05T03:39:20;33.10;;;15.60;;
16878;SDS011;8556;52.218;9.884;2022-12-05T03:41:51;36.73;;;18.37;;
16878;SDS011;8556;52.218;9.884;2022-12-05T03:44:25;34.87;;;16.07;;
16878;SDS011;8556;52.218;9.884;2022-12-05T03:46:59;34.80;;;17.17;;
16878;SDS011;8556;52.218;9.884;2022-12-05T03:49:29;34.00;;;17.20;;
16878;SDS011;8556;52.218;9.884;2022-12-05T03:52:02;31.27;;;16.53;;
16878;SDS011;8556;52.218;9.884;2022-12-05T03:54:34;37.17;;;17.97;;
16878;SDS011;8556;52.218;9.884;2022-12-05T03:57:04;31.20;;;15.87;;
16878;SDS011;8556;52.218;9.884;2022-12-05T03:59:36;33.90;;;16.67;;
16878;SDS011;8556;52.218;9.884;2022-12-05T04:02:06;31.20;;;15.17;;
16878;SDS011;8556;52.218;9.884;2022-12-05T04:04:39;33.90;;;16.43;;
16878;SDS011;8556;52.218;9.884;2022-12-05T04:07:11;34.50;;;17.17;;
16878;SDS011;8556;52.218;9.884;2022-12-05T04:09:40;31.73;;;17.37;;
16878;SDS011;8556;52.218;9.884;2022-12-05T04:12:12;31.07;;;16.03;;
16878;SDS011;8556;52.218;9.884;2022-12-05T04:14:45;37.43;;;16.80;;
16878;SDS011;8556;52.218;9.884;2022-12-05T04:17:17;32.17;;;16.40;;
16878;SDS011;8556;52.218;9.884;2022-12-05T04:19:49;32.33;;;16.43;;
16878;SDS011;8556;52.218;9.884;2022-12-05T04:22:37;32.60;;;15.73;;
16878;SDS011;8556;52.218;9.884;2022-12-05T04:25:06;30.33;;;16.03;;
16878;SDS011;8556;52.218;9.884;2022-12-05T04:27:53;32.23;;;17.23;;
16878;SDS011;8556;52.218;9.884;2022-12-05T04:30:29;33.13;;;18.47;;
16878;SDS011;8556;52.218;9.884;2022-12-05T04:33:04;31.63;;;16.70;;
16878;SDS011;8556;52.218;9.884;2022-12-05T04:35:36;30.87;;;16.00;;
16878;SDS011;8556;52.218;9.884;2022-12-05T04:38:09;33.70;;;15.97;;
16878;SDS011;8556;52.218;9.884;2022-12-05T04:40:41;37.90;;;16.27;;
16878;SDS011;8556;52.218;9.884;2022-12-05T04:43:13;34.30;;;19.27;;
16878;SDS011;8556;52.218;9.884;2022-12-05T04:45:43;31.20;;;15.23;;
16878;SDS011;8556;52.218;9.884;2022-12-05T04:48:13;31.00;;;18.47;;
16878;SDS011;8556;52.218;9.884;2022-12-05T04:50:41;32.37;;;17.90;;
16878;SDS011;8556;52.218;9.884;2022-12-05T04:53:10;32.77;;;18.97;;
16878;SDS011;8556;52.218;9.884;2022-12-05T04:55:39;31.80;;;15.93;;
16878;SDS011;8556;52.218;9.884;2022-12-05T04:58:09;32.97;;;15.83;;
16878;SDS011;8556;52.218;9.884;2022-12-05T05:00:40;31.03;;;16.03;;
16878;SDS011;8556;52.218;9.884;2022-12-05T05:03:15;32.93;;;17.53;;
16878;SDS011;8556;52.218;9.884;2022-12-05T05:05:47;32.67;;;17.03;;
16878;SDS011;8556;52.218;9.884;2022-12-05T05:08:17;30.50;;;14.83;;
16878;SDS011;8556;52.218;9.884;2022-12-05T05:10:47;29.23;;;15.87;;
16878;SDS011;8556;52.218;9.884;2022-12-05T05:13:20;30.17;;;15.37;;
16878;SDS011;8556;52.218;9.884;2022-12-05T05:15:47;32.17;;;15.83;;
16878;SDS011;8556;52.218;9.884;2022-12-05T05:18:15;30.87;;;14.97;;
16878;SDS011;8556;52.218;9.884;2022-12-05T05:20:42;30.10;;;15.27;;
16878;SDS011;8556;52.218;9.884;2022-12-05T05:23:09;32.33;;;15.80;;
16878;SDS011;8556;52.218;9.884;2022-12-05T05:25:35;29.70;;;15.03;;
16878;SDS011;8556;52.218;9.884;2022-12-05T05:28:02;30.10;;;14.10;;
16878;SDS011;8556;52.218;9.884;2022-12-05T05:30:29;31.93;;;15.37;;
16878;SDS011;8556;52.218;9.884;2022-12-05T05:32:57;29.47;;;14.97;;
16878;SDS011;8556;52.218;9.884;2022-12-05T05:35:26;31.50;;;15.20;;
16878;SDS011;8556;52.218;9.884;2022-12-05T05:37:52;28.40;;;14.07;;
16878;SDS011;8556;52.218;9.884;2022-12-05T05:40:19;30.43;;;15.90;;
16878;SDS011;8556;52.218;9.884;2022-12-05T05:42:46;30.03;;;14.93;;
16878;SDS011;8556;52.218;9.884;2022-12-05T05:45:15;31.77;;;17.93;;
16878;SDS011;8556;52.218;9.884;2022-12-05T05:47:42;30.53;;;15.50;;
16878;SDS011;8556;52.218;9.884;2022-12-05T05:50:09;29.50;;;14.97;;
16878;SDS011;8556;52.218;9.884;2022-12-05T05:52:38;30.40;;;14.70;;
16878;SDS011;8556;52.218;9.884;2022-12-05T05:55:05;29.70;;;16.73;;
16878;SDS011;8556;52.218;9.884;2022-12-05T05:57:33;29.13;;;14.37;;
16878;SDS011;8556;52.218;9.884;2022-12-05T06:00:01;29.33;;;14.70;;
16878;SDS011;8556;52.218;9.884;2022-12-05T06:02:30;28.03;;;16.20;;
16878;SDS011;8556;52.218;9.884;2022-12-05T06:04:58;27.93;;;16.00;;
16878;SDS011;8556;52.218;9.884;2022-12-05T06:07:25;28.03;;;14.23;;
16878;SDS011;8556;52.218;9.884;2022-12-05T06:09:54;29.37;;;15.50;;
16878;SDS011;8556;52.218;9.884;2022-12-05T06:12:21;27.43;;;13.83;;
16878;SDS011;8556;52.218;9.884;2022-12-05T06:14:48;26.00;;;13.77;;
16878;SDS011;8556;52.218;9.884;2022-12-05T06:17:15;27.97;;;14.00;;
16878;SDS011;8556;52.218;9.884;2022-12-05T06:19:42;28.37;;;14.17;;
16878;SDS011;8556;52.218;9.884;2022-12-05T06:22:09;29.23;;;15.40;;
16878;SDS011;8556;52.218;9.884;2022-12-05T06:24:36;29.60;;;14.93;;
16878;SDS011;8556;52.218;9.884;2022-12-05T06:27:04;25.73;;;12.77;;
16878;SDS011;8556;52.218;9.884;2022-12-05T06:29:31;26.20;;;12.90;;
16878;SDS011;8556;52.218;9.884;2022-12-05T06:31:59;28.63;;;14.33;;
16878;SDS011;8556;52.218;9.884;2022-12-05T06:34:26;26.00;;;13.63;;
16878;SDS011;8556;52.218;9.884;2022-12-05T06:36:53;27.30;;;13.20;;
16878;SDS011;8556;52.218;9.884;2022-12-05T06:39:20;24.20;;;12.77;;
16878;SDS011;8556;52.218;9.884;2022-12-05T06:41:46;23.67;;;13.17;;
16878;SDS011;8556;52.218;9.884;2022-12-05T06:44:15;23.70;;;12.87;;
16878;SDS011;8556;52.218;9.884;2022-12-05T06:46:41;24.90;;;12.00;;
16878;SDS011;8556;52.218;9.884;2022-12-05T06:49:08;25.63;;;12.97;;
16878;SDS011;8556;52.218;9.884;2022-12-05T06:51:36;27.27;;;13.00;;
16878;SDS011;8556;52.218;9.884;2022-12-05T06:54:02;25.07;;;12.67;;
16878;SDS011;8556;52.218;9.884;2022-12-05T06:56:29;26.00;;;12.73;;
16878;SDS011;8556;52.218;9.884;2022-12-05T06:58:56;23.13;;;11.27;;
16878;SDS011;8556;52.218;9.884;2022-12-05T07:01:24;27.73;;;13.43;;
16878;SDS011;8556;52.218;9.884;2022-12-05T07:04:03;22.73;;;12.40;;
16878;SDS011;8556;52.218;9.884;2022-12-05T07:06:31;25.77;;;11.30;;
16878;SDS011;8556;52.218;9.884;2022-12-05T07:08:58;23.47;;;12.03;;
16878;SDS011;8556;52.218;9.884;2022-12-05T07:11:25;23.77;;;13.67;;
16878;SDS011;8556;52.218;9.884;2022-12-05T07:13:52;24.63;;;12.33;;
16878;SDS011;8556;52.218;9.884;2022-12-05T07:16:19;21.87;;;11.20;;
16878;SDS011;8556;52.218;9.884;2022-12-05T07:18:47;24.23;;;11.60;;
16878;SDS011;8556;52.218;9.884;2022-12-05T07:21:15;24.13;;;14.03;;
16878;SDS011;8556;52.218;9.884;2022-12-05T07:23:44;25.67;;;14.00;;
16878;SDS011;8556;52.218;9.884;2022-12-05T07:26:12;23.07;;;13.27;;
16878;SDS011;8556;52.218;9.884;2022-12-05T07:28:41;25.00;;;12.30;;
16878;SDS011;8556;52.218;9.884;2022-12-05T07:31:08;24.40;;;11.87;;
16878;SDS011;8556;52.218;9.884;2022-12-05T07:33:37;25.03;;;12.50;;
16878;SDS011;8556;52.218;9.884;2022-12-05T07:36:06;25.70;;;12.63;;
16878;SDS011;8556;52.218;9.884;2022-12-05T07:38:34;22.03;;;11.13;;
16878;SDS011;8556;52.218;9.884;2022-12-05T07:41:03;22.83;;;12.03;;
16878;SDS011;8556;52.218;9.884;2022-12-05T07:43:31;21.17;;;10.97;;
16878;SDS011;8556;52.218;9.884;2022-12-05T07:46:00;21.43;;;10.80;;
16878;SDS011;8556;52.218;9.884;2022-12-05T07:48:28;22.73;;;11.00;;
16878;SDS011;8556;52.218;9.884;2022-12-05T07:50:57;21.53;;;11.57;;
16878;SDS011;8556;52.218;9.884;2022-12-05T07:53:27;21.70;;;11.33;;
16878;SDS011;8556;52.218;9.884;2022-12-05T07:55:54;20.63;;;11.57;;
16878;SDS011;8556;52.218;9.884;2022-12-05T07:58:20;22.20;;;13.00;;
16878;SDS011;8556;52.218;9.884;2022-12-05T08:00:47;20.67;;;11.17;;
16878;SDS011;8556;52.218;9.884;2022-12-05T08:03:14;23.63;;;11.07;;
16878;SDS011;8556;52.218;9.884;2022-12-05T08:05:41;22.63;;;10.97;;
16878;SDS011;8556;52.218;9.884;2022-12-05T08:08:08;19.90;;;10.77;;
16878;SDS011;8556;52.218;9.884;2022-12-05T08:10:36;24.63;;;12.50;;
16878;SDS011;8556;52.218;9.884;2022-12-05T08:13:03;22.60;;;12.23;;
16878;SDS011;8556;52.218;9.884;2022-12-05T08:15:32;19.87;;;11.10;;
16878;SDS011;8556;52.218;9.884;2022-12-05T08:17:59;24.10;;;11.93;;
16878;SDS011;8556;52.218;9.884;2022-12-05T08:20:26;22.47;;;11.23;;
16878;SDS011;8556;52.218;9.884;2022-12-05T08:22:53;20.43;;;11.40;;
16878;SDS011;8556;52.218;9.884;2022-12-05T08:25:20;19.03;;;11.57;;
16878;SDS011;8556;52.218;9.884;2022-12-05T08:27:48;21.40;;;10.33;;
16878;SDS011;8556;52.218;9.884;2022-12-05T08:30:15;20.27;;;10.60;;
16878;SDS011;8556;52.218;9.884;2022-12-05T08:32:42;21.30;;;10.67;;
16878;SDS011;8556;52.218;9.884;2022-12-05T08:35:08;18.73;;;11.33;;
16878;SDS011;8556;52.218;9.884;2022-12-05T08:37:35;19.33;;;11.87;;
16878;SDS011;8556;52.218;9.884;2022-12-05T08:40:02;19.60;;;10.43;;
16878;SDS011;8556;52.218;9.884;2022-12-05T08:42:30;21.23;;;11.63;;
16878;SDS011;8556;52.218;9.884;2022-12-05T08:44:58;19.77;;;11.63;;
16878;SDS011;8556;52.218;9.884;2022-12-05T08:47:25;19.73;;;11.27;;
16878;SDS011;8556;52.218;9.884;2022-12-05T08:49:52;19.83;;;9.93;;
16878;SDS011;8556;52.218;9.884;2022-12-05T08:52:19;20.40;;;10.80;;
16878;SDS011;8556;52.218;9.884;2022-12-05T08:54:46;21.97;;;11.17;;
16878;SDS011;8556;52.218;9.884;2022-12-05T08:57:13;18.20;;;11.13;;
16878;SDS011;8556;52.218;9.884;2022-12-05T08:59:40;18.57;;;9.83;;
16878;SDS011;8556;52.218;9.884;2022-12-05T09:02:08;19.23;;;10.10;;
16878;SDS011;8556;52.218;9.884;2022-12-05T09:04:35;18.40;;;10.33;;
16878;SDS011;8556;52.218;9.884;2022-12-05T09:07:02;20.03;;;11.17;;
16878;SDS011;8556;52.218;9.884;2022-12-05T09:09:31;20.60;;;10.67;;
16878;SDS011;8556;52.218;9.884;2022-12-05T09:11:57;19.60;;;10.47;;
16878;SDS011;8556;52.218;9.884;2022-12-05T09:14:25;22.90;;;12.00;;
16878;SDS011;8556;52.218;9.884;2022-12-05T09:16:56;22.40;;;11.00;;
16878;SDS011;8556;52.218;9.884;2022-12-05T09:19:25;20.57;;;11.40;;
16878;SDS011;8556;52.218;9.884;2022-12-05T09:21:53;20.90;;;11.17;;
16878;SDS011;8556;52.218;9.884;2022-12-05T09:24:20;20.53;;;11.13;;
16878;SDS011;8556;52.218;9.884;2022-12-05T09:26:48;25.57;;;12.13;;
16878;SDS011;8556;52.218;9.884;2022-12-05T09:29:15;21.57;;;11.13;;
16878;SDS011;8556;52.218;9.884;2022-12-05T09:31:42;19.43;;;11.00;;
16878;SDS011;8556;52.218;9.884;2022-12-05T09:34:09;20.23;;;12.13;;
16878;SDS011;8556;52.218;9.884;2022-12-05T09:36:39;21.00;;;10.93;;
16878;SDS011;8556;52.218;9.884;2022-12-05T09:39:06;21.73;;;12.83;;
16878;SDS011;8556;52.218;9.884;2022-12-05T09:44:31;20.90;;;12.63;;
16878;SDS011;8556;52.218;9.884;2022-12-05T09:47:12;21.33;;;13.17;;
16878;SDS011;8556;52.218;9.884;2022-12-05T09:49:48;22.20;;;11.83;;
16878;SDS011;8556;52.218;9.884;2022-12-05T09:52:22;23.27;;;11.47;;
16878;SDS011;8556;52.218;9.884;2022-12-05T09:54:51;23.37;;;12.50;;
16878;SDS011;8556;52.218;9.884;2022-12-05T09:57:19;23.60;;;11.90;;
16878;SDS011;8556;52.218;9.884;2022-12-05T09:59:55;21.07;;;11.77;;
16878;SDS011;8556;52.218;9.884;2022-12-05T10:02:25;21.67;;;11.67;;
16878;SDS011;8556;52.218;9.884;2022-12-05T10:04:59;23.63;;;12.20;;
16878;SDS011;8556;52.218;9.884;2022-12-05T10:07:33;22.33;;;11.97;;
16878;SDS011;8556;52.218;9.884;2022-12-05T10:10:07;22.40;;;10.87;;
16878;SDS011;8556;52.218;9.884;2022-12-05T10:12:50;20.87;;;12.17;;
16878;SDS011;8556;52.218;9.884;2022-12-05T10:15:28;22.80;;;11.90;;
16878;SDS011;8556;52.218;9.884;2022-12-05T10:17:58;22.87;;;10.80;;
16878;SDS011;8556;52.218;9.884;2022-12-05T10:20:29;23.13;;;11.47;;
16878;SDS011;8556;52.218;9.884;2022-12-05T10:23:02;21.67;;;10.67;;
16878;SDS011;8556;52.218;9.884;2022-12-05T10:25:33;21.97;;;11.93;;
16878;SDS011;8556;52.218;9.884;2022-12-05T10:28:02;22.47;;;11.20;;
16878;SDS011;8556;52.218;9.884;2022-12-05T10:30:35;21.37;;;12.00;;
16878;SDS011;8556;52.218;9.884;2022-12-05T10:33:02;21.23;;;11.30;;
16878;SDS011;8556;52.218;9.884;2022-12-05T10:35:37;23.17;;;11.03;;
16878;SDS011;8556;52.218;9.884;2022-12-05T10:38:09;23.83;;;11.60;;
16878;SDS011;8556;52.218;9.884;2022-12-05T10:40:42;21.30;;;11.63;;
16878;SDS011;8556;52.218;9.884;2022-12-05T10:43:15;22.13;;;11.07;;
16878;SDS011;8556;52.218;9.884;2022-12-05T10:45:49;21.27;;;10.70;;
16878;SDS011;8556;52.218;9.884;2022-12-05T10:48:17;20.60;;;11.27;;
16878;SDS011;8556;52.218;9.884;2022-12-05T10:50:47;22.63;;;10.57;;
16878;SDS011;8556;52.218;9.884;2022-12-05T10:53:18;21.90;;;10.30;;
16878;SDS011;8556;52.218;9.884;2022-12-05T10:55:48;21.50;;;11.50;;
16878;SDS011;8556;52.218;9.884;2022-12-05T10:58:16;19.90;;;11.80;;
16878;SDS011;8556;52.218;9.884;2022-12-05T11:00:48;20.53;;;11.70;;
16878;SDS011;8556;52.218;9.884;2022-12-05T11:03:21;20.40;;;10.60;;
16878;SDS011;8556;52.218;9.884;2022-12-05T11:05:50;19.37;;;10.47;;
16878;SDS011;8556;52.218;9.884;2022-12-05T11:08:22;21.43;;;11.27;;
16878;SDS011;8556;52.218;9.884;2022-12-05T11:10:57;19.93;;;10.93;;
16878;SDS011;8556;52.218;9.884;2022-12-05T11:13:29;22.80;;;12.37;;
16878;SDS011;8556;52.218;9.884;2022-12-05T11:15:56;19.50;;;10.63;;
16878;SDS011;8556;52.218;9.884;2022-12-05T11:18:27;20.73;;;11.30;;
16878;SDS011;8556;52.218;9.884;2022-12-05T11:20:55;20.90;;;10.70;;
16878;SDS011;8556;52.218;9.884;2022-12-05T11:23:35;22.00;;;11.37;;
16878;SDS011;8556;52.218;9.884;2022-12-05T11:26:02;19.40;;;10.53;;
16878;SDS011;8556;52.218;9.884;2022-12-05T11:28:33;20.80;;;11.17;;
16878;SDS011;8556;52.218;9.884;2022-12-05T11:31:02;20.67;;;10.00;;
16878;SDS011;8556;52.218;9.884;2022-12-05T11:33:32;20.23;;;11.03;;
16878;SDS011;8556;52.218;9.884;2022-12-05T11:36:02;20.00;;;11.13;;
16878;SDS011;8556;52.218;9.884;2022-12-05T11:38:36;19.67;;;9.97;;
16878;SDS011;8556;52.218;9.884;2022-12-05T11:41:15;20.23;;;10.40;;
16878;SDS011;8556;52.218;9.884;2022-12-05T11:46:51;18.17;;;11.43;;
16878;SDS011;8556;52.218;9.884;2022-12-05T11:49:36;19.13;;;10.13;;
16878;SDS011;8556;52.218;9.884;2022-12-05T11:52:14;17.90;;;9.80;;
16878;SDS011;8556;52.218;9.884;2022-12-05T11:54:57;18.80;;;9.70;;
16878;SDS011;8556;52.218;9.884;2022-12-05T11:57:35;19.73;;;10.30;;
16878;SDS011;8556;52.218;9.884;2022-12-05T12:00:20;17.33;;;8.60;;
16878;SDS011;8556;52.218;9.884;2022-12-05T12:05:45;14.93;;;9.17;;
16878;SDS011;8556;52.218;9.884;2022-12-05T12:08:22;15.73;;;8.60;;
16878;SDS011;8556;52.218;9.884;2022-12-05T12:10:56;18.33;;;9.27;;
16878;SDS011;8556;52.218;9.884;2022-12-05T12:13:46;17.73;;;9.63;;
16878;SDS011;8556;52.218;9.884;2022-12-05T12:16:21;20.03;;;9.23;;
16878;SDS011;8556;52.218;9.884;2022-12-05T12:19:01;15.77;;;8.70;;
16878;SDS011;8556;52.218;9.884;2022-12-05T12:21:44;17.90;;;8.33;;
16878;SDS011;8556;52.218;9.884;2022-12-05T12:24:31;16.97;;;9.80;;
16878;SDS011;8556;52.218;9.884;2022-12-05T12:27:22;15.13;;;8.07;;
16878;SDS011;8556;52.218;9.884;2022-12-05T12:29:58;15.50;;;8.30;;
16878;SDS011;8556;52.218;9.884;2022-12-05T12:32:33;18.20;;;9.50;;
16878;SDS011;8556;52.218;9.884;2022-12-05T12:35:22;14.67;;;8.13;;
16878;SDS011;8556;52.218;9.884;2022-12-05T12:37:58;16.10;;;8.27;;
16878;SDS011;8556;52.218;9.884;2022-12-05T12:40:44;14.97;;;7.80;;
16878;SDS011;8556;52.218;9.884;2022-12-05T12:43:18;16.40;;;9.00;;
16878;SDS011;8556;52.218;9.884;2022-12-05T12:46:09;14.83;;;8.27;;
16878;SDS011;8556;52.218;9.884;2022-12-05T12:48:52;11.70;;;7.37;;
16878;SDS011;8556;52.218;9.884;2022-12-05T12:51:28;13.50;;;7.57;;
16878;SDS011;8556;52.218;9.884;2022-12-05T12:54:01;13.57;;;7.60;;
16878;SDS011;8556;52.218;9.884;2022-12-05T12:56:51;12.27;;;7.10;;
16878;SDS011;8556;52.218;9.884;2022-12-05T12:59:32;12.07;;;7.43;;
16878;SDS011;8556;52.218;9.884;2022-12-05T13:02:10;13.07;;;6.90;;
16878;SDS011;8556;52.218;9.884;2022-12-05T13:04:45;12.20;;;7.20;;
16878;SDS011;8556;52.218;9.884;2022-12-05T13:07:15;14.20;;;7.93;;
16878;SDS011;8556;52.218;9.884;2022-12-05T13:09:46;12.73;;;7.27;;
16878;SDS011;8556;52.218;9.884;2022-12-05T13:12:16;13.60;;;7.23;;
16878;SDS011;8556;52.218;9.884;2022-12-05T13:14:49;12.13;;;7.03;;
16878;SDS011;8556;52.218;9.884;2022-12-05T13:17:19;13.57;;;7.90;;
16878;SDS011;8556;52.218;9.884;2022-12-05T13:19:48;13.90;;;7.90;;
16878;SDS011;8556;52.218;9.884;2022-12-05T13:22:16;13.90;;;7.43;;
16878;SDS011;8556;52.218;9.884;2022-12-05T13:24:45;15.63;;;9.10;;
16878;SDS011;8556;52.218;9.884;2022-12-05T13:27:13;14.93;;;8.57;;
16878;SDS011;8556;52.218;9.884;2022-12-05T13:29:46;15.70;;;8.60;;
16878;SDS011;8556;52.218;9.884;2022-12-05T13:32:27;14.63;;;9.00;;
16878;SDS011;8556;52.218;9.884;2022-12-05T13:34:57;14.80;;;8.63;;
16878;SDS011;8556;52.218;9.884;2022-12-05T13:37:26;14.03;;;7.80;;
16878;SDS011;8556;52.218;9.884;2022-12-05T13:40:26;15.93;;;8.63;;
16878;SDS011;8556;52.218;9.884;2022-12-05T13:43:12;16.23;;;9.63;;
16878;SDS011;8556;52.218;9.884;2022-12-05T13:45:53;18.17;;;9.40;;
16878;SDS011;8556;52.218;9.884;2022-12-05T13:48:26;19.43;;;10.03;;
16878;SDS011;8556;52.218;9.884;2022-12-05T13:50:56;19.03;;;10.70;;
16878;SDS011;8556;52.218;9.884;2022-12-05T13:53:31;17.37;;;10.37;;
16878;SDS011;8556;52.218;9.884;2022-12-05T13:56:03;15.83;;;9.70;;
16878;SDS011;8556;52.218;9.884;2022-12-05T14:10:07;14.33;;;7.80;;
16878;SDS011;8556;52.218;9.884;2022-12-05T14:12:46;13.07;;;7.57;;
16878;SDS011;8556;52.218;9.884;2022-12-05T14:18:13;11.37;;;6.70;;
16878;SDS011;8556;52.218;9.884;2022-12-05T14:20:46;11.00;;;7.23;;
16878;SDS011;8556;52.218;9.884;2022-12-05T14:23:38;12.17;;;7.03;;
16878;SDS011;8556;52.218;9.884;2022-12-05T14:26:22;11.10;;;6.63;;
16878;SDS011;8556;52.218;9.884;2022-12-05T14:32:04;14.33;;;7.30;;
16878;SDS011;8556;52.218;9.884;2022-12-05T14:34:48;13.17;;;7.23;;
16878;SDS011;8556;52.218;9.884;2022-12-05T14:37:23;13.93;;;7.57;;
16878;SDS011;8556;52.218;9.884;2022-12-05T14:39:54;12.33;;;7.87;;
16878;SDS011;8556;52.218;9.884;2022-12-05T14:42:25;10.80;;;6.93;;
16878;SDS011;8556;52.218;9.884;2022-12-05T14:44:57;13.47;;;7.73;;
16878;SDS011;8556;52.218;9.884;2022-12-05T14:47:27;14.07;;;8.20;;
16878;SDS011;8556;52.218;9.884;2022-12-05T14:49:58;15.67;;;8.63;;
16878;SDS011;8556;52.218;9.884;2022-12-05T14:52:48;13.97;;;8.03;;
16878;SDS011;8556;52.218;9.884;2022-12-05T14:55:40;14.73;;;8.70;;
16878;SDS011;8556;52.218;9.884;2022-12-05T14:58:08;16.47;;;9.33;;
16878;SDS011;8556;52.218;9.884;2022-12-05T15:00:41;14.40;;;8.10;;
16878;SDS011;8556;52.218;9.884;2022-12-05T15:03:10;15.57;;;9.90;;
16878;SDS011;8556;52.218;9.884;2022-12-05T15:05:49;15.07;;;8.33;;
16878;SDS011;8556;52.218;9.884;2022-12-05T15:08:17;14.40;;;8.30;;
16878;SDS011;8556;52.218;9.884;2022-12-05T15:10:46;14.73;;;8.43;;
16878;SDS011;8556;52.218;9.884;2022-12-05T15:13:15;13.97;;;8.30;;
16878;SDS011;8556;52.218;9.884;2022-12-05T15:15:44;14.97;;;8.43;;
16878;SDS011;8556;52.218;9.884;2022-12-05T15:18:17;13.83;;;8.43;;
16878;SDS011;8556;52.218;9.884;2022-12-05T15:20:50;14.70;;;8.67;;
16878;SDS011;8556;52.218;9.884;2022-12-05T15:23:41;13.97;;;8.40;;
16878;SDS011;8556;52.218;9.884;2022-12-05T15:26:13;15.77;;;9.40;;
16878;SDS011;8556;52.218;9.884;2022-12-05T15:28:59;13.87;;;8.07;;
16878;SDS011;8556;52.218;9.884;2022-12-05T15:31:31;15.63;;;8.97;;